sensor_id;sensor_type;location;lat;lon;timestamp;temperature;humidity
5802;DHT22;2927;49.366;8.530;2023-02-28T00:00:17;0.10;1.00
5802;DHT22;2927;49.366;8.530;2023-02-28T00:02:44;0.00;13.80
5802;DHT22;2927;49.366;8.530;2023-02-28T00:05:11;0.00;91.60
5802;DHT22;2927;49.366;8.530;2023-02-28T00:07:37;0.00;90.20
5802;DHT22;2927;49.366;8.530;2023-02-28T00:10:07;0.00;99.90
5802;DHT22;2927;49.366;8.530;2023-02-28T00:12:34;0.00;99.90
5802;DHT22;2927;49.366;8.530;2023-02-28T00:15:00;-0.10;99.90
5802;DHT22;2927;49.366;8.530;2023-02-28T00:17:26;-0.10;99.90
5802;DHT22;2927;49.366;8.530;2023-02-28T00:19:51;-0.10;99.90
5802;DHT22;2927;49.366;8.530;2023-02-28T00:22:18;-0.20;99.90
5802;DHT22;2927;49.366;8.530;2023-02-28T00:24:44;-0.20;99.90
5802;DHT22;2927;49.366;8.530;2023-02-28T00:27:10;-0.20;99.90
5802;DHT22;2927;49.366;8.530;2023-02-28T00:29:36;-0.20;99.90
5802;DHT22;2927;49.366;8.530;2023-02-28T00:32:01;-0.30;1.00
5802;DHT22;2927;49.366;8.530;2023-02-28T00:34:27;-0.30;1.00
5802;DHT22;2927;49.366;8.530;2023-02-28T00:36:53;-0.40;1.00
5802;DHT22;2927;49.366;8.530;2023-02-28T00:39:18;-0.40;1.00
5802;DHT22;2927;49.366;8.530;2023-02-28T00:41:44;-0.40;1.00
5802;DHT22;2927;49.366;8.530;2023-02-28T00:44:09;-0.30;1.00
5802;DHT22;2927;49.366;8.530;2023-02-28T00:46:35;-0.40;1.00
5802;DHT22;2927;49.366;8.530;2023-02-28T00:49:00;-0.40;1.00
5802;DHT22;2927;49.366;8.530;2023-02-28T00:51:26;-0.40;1.00
5802;DHT22;2927;49.366;8.530;2023-02-28T00:53:51;-0.50;1.00
5802;DHT22;2927;49.366;8.530;2023-02-28T00:56:17;-0.50;1.00
5802;DHT22;2927;49.366;8.530;2023-02-28T00:58:42;-0.50;1.00
5802;DHT22;2927;49.366;8.530;2023-02-28T01:01:08;-0.50;1.00
5802;DHT22;2927;49.366;8.530;2023-02-28T01:03:33;-0.50;1.00
5802;DHT22;2927;49.366;8.530;2023-02-28T01:05:59;-0.60;1.00
5802;DHT22;2927;49.366;8.530;2023-02-28T01:08:27;-0.60;1.00
5802;DHT22;2927;49.366;8.530;2023-02-28T01:10:53;-0.60;1.00
5802;DHT22;2927;49.366;8.530;2023-02-28T01:13:19;-0.60;1.00
5802;DHT22;2927;49.366;8.530;2023-02-28T01:15:55;-0.60;1.00
5802;DHT22;2927;49.366;8.530;2023-02-28T01:18:22;-0.60;1.00
5802;DHT22;2927;49.366;8.530;2023-02-28T01:20:48;-0.60;1.00
5802;DHT22;2927;49.366;8.530;2023-02-28T01:23:14;-0.60;1.00
5802;DHT22;2927;49.366;8.530;2023-02-28T01:25:39;-0.70;1.00
5802;DHT22;2927;49.366;8.530;2023-02-28T01:28:05;-0.70;1.00
5802;DHT22;2927;49.366;8.530;2023-02-28T01:30:31;-0.70;85.00
5802;DHT22;2927;49.366;8.530;2023-02-28T01:32:57;-0.80;99.90
5802;DHT22;2927;49.366;8.530;2023-02-28T01:35:23;-0.80;99.90
5802;DHT22;2927;49.366;8.530;2023-02-28T01:37:48;-0.80;99.90
5802;DHT22;2927;49.366;8.530;2023-02-28T01:40:14;-0.80;99.90
5802;DHT22;2927;49.366;8.530;2023-02-28T01:42:40;-0.80;99.90
5802;DHT22;2927;49.366;8.530;2023-02-28T01:45:29;-0.80;99.90
5802;DHT22;2927;49.366;8.530;2023-02-28T01:48:00;-0.80;99.90
5802;DHT22;2927;49.366;8.530;2023-02-28T01:50:30;-0.80;99.90
5802;DHT22;2927;49.366;8.530;2023-02-28T01:53:00;-0.80;99.90
5802;DHT22;2927;49.366;8.530;2023-02-28T01:55:28;-0.90;1.00
5802;DHT22;2927;49.366;8.530;2023-02-28T01:57:57;-0.90;1.00
5802;DHT22;2927;49.366;8.530;2023-02-28T02:00:26;-0.90;1.00
5802;DHT22;2927;49.366;8.530;2023-02-28T02:03:01;-0.90;1.00
5802;DHT22;2927;49.366;8.530;2023-02-28T02:05:30;-0.90;1.00
5802;DHT22;2927;49.366;8.530;2023-02-28T02:08:02;-1.00;1.00
5802;DHT22;2927;49.366;8.530;2023-02-28T02:13:54;-1.00;1.00
5802;DHT22;2927;49.366;8.530;2023-02-28T02:16:28;-1.00;1.00
5802;DHT22;2927;49.366;8.530;2023-02-28T02:25:31;-1.10;1.00
5802;DHT22;2927;49.366;8.530;2023-02-28T02:30:29;-1.10;99.90
5802;DHT22;2927;49.366;8.530;2023-02-28T02:38:27;-1.20;99.90
5802;DHT22;2927;49.366;8.530;2023-02-28T02:44:01;-1.20;99.90
5802;DHT22;2927;49.366;8.530;2023-02-28T02:46:32;-1.20;99.90
5802;DHT22;2927;49.366;8.530;2023-02-28T02:49:00;-1.20;1.00
5802;DHT22;2927;49.366;8.530;2023-02-28T02:51:27;-1.30;1.00
5802;DHT22;2927;49.366;8.530;2023-02-28T02:54:00;-1.30;1.00
5802;DHT22;2927;49.366;8.530;2023-02-28T02:56:30;-1.30;1.00
5802;DHT22;2927;49.366;8.530;2023-02-28T02:59:02;-1.30;1.00
5802;DHT22;2927;49.366;8.530;2023-02-28T03:01:31;-1.40;1.00
5802;DHT22;2927;49.366;8.530;2023-02-28T03:03:59;-1.40;1.00
5802;DHT22;2927;49.366;8.530;2023-02-28T03:06:26;-1.40;1.00
5802;DHT22;2927;49.366;8.530;2023-02-28T03:08:52;-1.40;1.00
5802;DHT22;2927;49.366;8.530;2023-02-28T03:11:18;-1.40;1.00
5802;DHT22;2927;49.366;8.530;2023-02-28T03:13:58;-1.40;1.00
5802;DHT22;2927;49.366;8.530;2023-02-28T03:16:46;-1.40;1.00
5802;DHT22;2927;49.366;8.530;2023-02-28T03:19:31;-1.50;99.90
5802;DHT22;2927;49.366;8.530;2023-02-28T03:24:49;-1.60;99.90
5802;DHT22;2927;49.366;8.530;2023-02-28T03:27:31;-1.60;1.00
5802;DHT22;2927;49.366;8.530;2023-02-28T03:30:14;-1.60;1.00
5802;DHT22;2927;49.366;8.530;2023-02-28T03:33:02;-1.60;1.00
5802;DHT22;2927;49.366;8.530;2023-02-28T03:35:34;-1.60;1.00
5802;DHT22;2927;49.366;8.530;2023-02-28T03:40:58;-1.60;1.00
5802;DHT22;2927;49.366;8.530;2023-02-28T03:43:29;-1.60;1.00
5802;DHT22;2927;49.366;8.530;2023-02-28T03:45:58;-1.60;1.00
5802;DHT22;2927;49.366;8.530;2023-02-28T03:48:51;-1.60;1.00
5802;DHT22;2927;49.366;8.530;2023-02-28T03:51:19;-1.60;1.00
5802;DHT22;2927;49.366;8.530;2023-02-28T03:53:59;-1.60;1.00
5802;DHT22;2927;49.366;8.530;2023-02-28T03:56:32;-1.60;1.00
5802;DHT22;2927;49.366;8.530;2023-02-28T03:59:22;-1.60;1.00
5802;DHT22;2927;49.366;8.530;2023-02-28T04:01:50;-1.60;1.00
5802;DHT22;2927;49.366;8.530;2023-02-28T04:04:17;-1.60;1.00
5802;DHT22;2927;49.366;8.530;2023-02-28T04:06:44;-1.60;1.00
5802;DHT22;2927;49.366;8.530;2023-02-28T04:09:11;-1.60;1.00
5802;DHT22;2927;49.366;8.530;2023-02-28T04:11:40;-1.70;1.00
5802;DHT22;2927;49.366;8.530;2023-02-28T04:14:08;-1.70;1.00
5802;DHT22;2927;49.366;8.530;2023-02-28T04:16:35;-1.70;1.00
5802;DHT22;2927;49.366;8.530;2023-02-28T04:19:03;-1.70;1.00
5802;DHT22;2927;49.366;8.530;2023-02-28T04:21:32;-1.70;1.00
5802;DHT22;2927;49.366;8.530;2023-02-28T04:23:57;-1.70;1.00
5802;DHT22;2927;49.366;8.530;2023-02-28T04:26:34;-1.70;13.50
5802;DHT22;2927;49.366;8.530;2023-02-28T04:29:00;-1.70;70.00
5802;DHT22;2927;49.366;8.530;2023-02-28T04:31:26;-1.70;99.90
5802;DHT22;2927;49.366;8.530;2023-02-28T04:33:52;-1.80;99.90
5802;DHT22;2927;49.366;8.530;2023-02-28T04:36:17;-1.80;99.90
5802;DHT22;2927;49.366;8.530;2023-02-28T04:38:44;-1.80;99.90
5802;DHT22;2927;49.366;8.530;2023-02-28T04:41:10;-1.80;1.00
5802;DHT22;2927;49.366;8.530;2023-02-28T04:43:36;-1.80;1.00
5802;DHT22;2927;49.366;8.530;2023-02-28T04:46:03;-1.80;1.00
5802;DHT22;2927;49.366;8.530;2023-02-28T04:48:31;-1.80;1.00
5802;DHT22;2927;49.366;8.530;2023-02-28T04:51:17;-1.80;1.00
5802;DHT22;2927;49.366;8.530;2023-02-28T04:53:43;-1.80;1.00
5802;DHT22;2927;49.366;8.530;2023-02-28T04:56:12;-1.80;1.00
5802;DHT22;2927;49.366;8.530;2023-02-28T04:58:38;-1.80;1.00
5802;DHT22;2927;49.366;8.530;2023-02-28T05:01:07;-1.80;1.00
5802;DHT22;2927;49.366;8.530;2023-02-28T05:03:41;-1.80;1.00
5802;DHT22;2927;49.366;8.530;2023-02-28T05:06:07;-1.80;1.00
5802;DHT22;2927;49.366;8.530;2023-02-28T05:08:33;-1.70;1.00
5802;DHT22;2927;49.366;8.530;2023-02-28T05:10:59;-1.70;1.00
5802;DHT22;2927;49.366;8.530;2023-02-28T05:13:28;-1.60;1.00
5802;DHT22;2927;49.366;8.530;2023-02-28T05:15:54;-1.50;99.90
5802;DHT22;2927;49.366;8.530;2023-02-28T05:18:20;-1.50;99.90
5802;DHT22;2927;49.366;8.530;2023-02-28T05:20:45;-1.40;12.60
5802;DHT22;2927;49.366;8.530;2023-02-28T05:23:12;-1.40;1.00
5802;DHT22;2927;49.366;8.530;2023-02-28T05:25:39;-1.40;1.00
5802;DHT22;2927;49.366;8.530;2023-02-28T05:28:05;-1.30;1.00
5802;DHT22;2927;49.366;8.530;2023-02-28T05:30:30;-1.30;1.00
5802;DHT22;2927;49.366;8.530;2023-02-28T05:32:57;-1.30;1.00
5802;DHT22;2927;49.366;8.530;2023-02-28T05:35:23;-1.20;1.00
5802;DHT22;2927;49.366;8.530;2023-02-28T05:37:49;-1.20;1.00
5802;DHT22;2927;49.366;8.530;2023-02-28T05:40:14;-1.20;99.90
5802;DHT22;2927;49.366;8.530;2023-02-28T05:42:41;-1.20;1.00
5802;DHT22;2927;49.366;8.530;2023-02-28T05:45:08;-1.10;99.90
5802;DHT22;2927;49.366;8.530;2023-02-28T05:47:34;-1.10;99.90
5802;DHT22;2927;49.366;8.530;2023-02-28T05:50:00;-1.10;99.90
5802;DHT22;2927;49.366;8.530;2023-02-28T05:52:27;-1.10;99.90
5802;DHT22;2927;49.366;8.530;2023-02-28T05:54:53;-1.00;99.90
5802;DHT22;2927;49.366;8.530;2023-02-28T05:57:18;-1.10;99.90
5802;DHT22;2927;49.366;8.530;2023-02-28T05:59:44;-1.00;99.90
5802;DHT22;2927;49.366;8.530;2023-02-28T06:02:14;-1.00;99.90
5802;DHT22;2927;49.366;8.530;2023-02-28T06:04:40;-1.00;99.90
5802;DHT22;2927;49.366;8.530;2023-02-28T06:07:07;-1.00;99.90
5802;DHT22;2927;49.366;8.530;2023-02-28T06:09:33;-1.00;1.00
5802;DHT22;2927;49.366;8.530;2023-02-28T06:11:59;-1.00;1.00
5802;DHT22;2927;49.366;8.530;2023-02-28T06:14:26;-0.90;99.90
5802;DHT22;2927;49.366;8.530;2023-02-28T06:16:51;-0.80;1.00
5802;DHT22;2927;49.366;8.530;2023-02-28T06:19:17;-0.80;1.00
5802;DHT22;2927;49.366;8.530;2023-02-28T06:21:43;-0.70;1.00
5802;DHT22;2927;49.366;8.530;2023-02-28T06:24:09;-0.70;1.00
5802;DHT22;2927;49.366;8.530;2023-02-28T06:26:35;-0.60;1.00
5802;DHT22;2927;49.366;8.530;2023-02-28T06:29:00;-0.60;1.00
5802;DHT22;2927;49.366;8.530;2023-02-28T06:31:26;-0.50;1.00
5802;DHT22;2927;49.366;8.530;2023-02-28T06:33:54;-0.50;99.90
5802;DHT22;2927;49.366;8.530;2023-02-28T06:36:20;-0.50;99.90
5802;DHT22;2927;49.366;8.530;2023-02-28T06:38:45;-0.50;99.90
5802;DHT22;2927;49.366;8.530;2023-02-28T06:41:13;-0.40;99.90
5802;DHT22;2927;49.366;8.530;2023-02-28T06:43:41;-0.40;99.90
5802;DHT22;2927;49.366;8.530;2023-02-28T06:46:08;-0.40;99.90
5802;DHT22;2927;49.366;8.530;2023-02-28T06:48:36;-0.30;99.90
5802;DHT22;2927;49.366;8.530;2023-02-28T06:53:32;-0.30;90.70
5802;DHT22;2927;49.366;8.530;2023-02-28T06:55:58;-0.30;1.00
5802;DHT22;2927;49.366;8.530;2023-02-28T06:58:23;-0.30;1.00
5802;DHT22;2927;49.366;8.530;2023-02-28T07:00:51;-0.30;1.00
5802;DHT22;2927;49.366;8.530;2023-02-28T07:03:18;-0.20;1.00
5802;DHT22;2927;49.366;8.530;2023-02-28T07:05:44;-0.20;1.00
5802;DHT22;2927;49.366;8.530;2023-02-28T07:08:09;-0.10;1.00
5802;DHT22;2927;49.366;8.530;2023-02-28T07:10:38;0.00;1.00
5802;DHT22;2927;49.366;8.530;2023-02-28T07:13:04;0.10;1.00
5802;DHT22;2927;49.366;8.530;2023-02-28T07:15:30;0.10;1.00
5802;DHT22;2927;49.366;8.530;2023-02-28T07:17:56;0.10;1.00
5802;DHT22;2927;49.366;8.530;2023-02-28T07:20:22;0.20;1.00
5802;DHT22;2927;49.366;8.530;2023-02-28T07:22:49;0.20;1.00
5802;DHT22;2927;49.366;8.530;2023-02-28T07:25:21;0.30;1.00
5802;DHT22;2927;49.366;8.530;2023-02-28T07:27:47;0.30;1.00
5802;DHT22;2927;49.366;8.530;2023-02-28T07:30:13;0.40;1.00
5802;DHT22;2927;49.366;8.530;2023-02-28T07:32:38;0.50;1.00
5802;DHT22;2927;49.366;8.530;2023-02-28T07:35:04;0.70;99.90
5802;DHT22;2927;49.366;8.530;2023-02-28T07:37:30;0.70;99.90
5802;DHT22;2927;49.366;8.530;2023-02-28T07:40:06;0.90;99.90
5802;DHT22;2927;49.366;8.530;2023-02-28T07:42:37;0.80;99.90
5802;DHT22;2927;49.366;8.530;2023-02-28T07:45:04;1.10;99.90
5802;DHT22;2927;49.366;8.530;2023-02-28T07:47:30;1.00;99.90
5802;DHT22;2927;49.366;8.530;2023-02-28T07:49:57;1.00;97.40
5802;DHT22;2927;49.366;8.530;2023-02-28T07:52:23;1.00;99.90
5802;DHT22;2927;49.366;8.530;2023-02-28T07:54:52;1.10;1.00
5802;DHT22;2927;49.366;8.530;2023-02-28T07:57:18;1.10;92.10
5802;DHT22;2927;49.366;8.530;2023-02-28T07:59:44;1.40;1.00
5802;DHT22;2927;49.366;8.530;2023-02-28T08:02:14;1.60;1.00
5802;DHT22;2927;49.366;8.530;2023-02-28T08:04:40;1.70;1.00
5802;DHT22;2927;49.366;8.530;2023-02-28T08:07:06;1.80;1.00
5802;DHT22;2927;49.366;8.530;2023-02-28T08:09:31;1.90;1.00
5802;DHT22;2927;49.366;8.530;2023-02-28T08:11:57;1.70;1.00
5802;DHT22;2927;49.366;8.530;2023-02-28T08:14:22;1.90;1.00
5802;DHT22;2927;49.366;8.530;2023-02-28T08:16:48;2.10;1.00
5802;DHT22;2927;49.366;8.530;2023-02-28T08:19:13;2.10;1.00
5802;DHT22;2927;49.366;8.530;2023-02-28T08:21:39;2.10;1.00
5802;DHT22;2927;49.366;8.530;2023-02-28T08:24:05;2.20;1.00
5802;DHT22;2927;49.366;8.530;2023-02-28T08:26:31;2.10;1.00
5802;DHT22;2927;49.366;8.530;2023-02-28T08:28:56;2.00;1.00
5802;DHT22;2927;49.366;8.530;2023-02-28T08:31:22;2.20;1.00
5802;DHT22;2927;49.366;8.530;2023-02-28T08:33:48;2.30;1.00
5802;DHT22;2927;49.366;8.530;2023-02-28T08:36:16;2.10;1.00
5802;DHT22;2927;49.366;8.530;2023-02-28T08:38:42;2.30;1.00
5802;DHT22;2927;49.366;8.530;2023-02-28T08:41:12;2.40;1.00
5802;DHT22;2927;49.366;8.530;2023-02-28T08:43:38;2.30;1.00
5802;DHT22;2927;49.366;8.530;2023-02-28T08:46:04;2.40;1.00
5802;DHT22;2927;49.366;8.530;2023-02-28T08:48:32;2.20;1.00
5802;DHT22;2927;49.366;8.530;2023-02-28T08:50:59;2.30;1.00
5802;DHT22;2927;49.366;8.530;2023-02-28T08:53:25;2.40;1.00
5802;DHT22;2927;49.366;8.530;2023-02-28T08:56:02;2.50;1.00
5802;DHT22;2927;49.366;8.530;2023-02-28T08:58:28;2.50;1.00
5802;DHT22;2927;49.366;8.530;2023-02-28T09:00:54;2.60;1.00
5802;DHT22;2927;49.366;8.530;2023-02-28T09:03:21;2.60;1.00
5802;DHT22;2927;49.366;8.530;2023-02-28T09:05:58;2.70;1.00
5802;DHT22;2927;49.366;8.530;2023-02-28T09:08:27;2.50;1.00
5802;DHT22;2927;49.366;8.530;2023-02-28T09:10:53;2.30;1.00
5802;DHT22;2927;49.366;8.530;2023-02-28T09:13:19;2.40;1.00
5802;DHT22;2927;49.366;8.530;2023-02-28T09:15:45;2.50;1.00
5802;DHT22;2927;49.366;8.530;2023-02-28T09:18:11;2.60;1.00
5802;DHT22;2927;49.366;8.530;2023-02-28T09:20:38;3.00;1.00
5802;DHT22;2927;49.366;8.530;2023-02-28T09:23:06;3.10;1.00
5802;DHT22;2927;49.366;8.530;2023-02-28T09:25:31;2.80;1.00
5802;DHT22;2927;49.366;8.530;2023-02-28T09:27:57;3.10;1.00
5802;DHT22;2927;49.366;8.530;2023-02-28T09:30:22;3.30;1.00
5802;DHT22;2927;49.366;8.530;2023-02-28T09:32:48;3.50;1.00
5802;DHT22;2927;49.366;8.530;2023-02-28T09:35:18;3.30;1.00
5802;DHT22;2927;49.366;8.530;2023-02-28T09:37:44;3.30;1.00
5802;DHT22;2927;49.366;8.530;2023-02-28T09:40:12;3.60;99.90
5802;DHT22;2927;49.366;8.530;2023-02-28T09:42:39;3.10;99.90
5802;DHT22;2927;49.366;8.530;2023-02-28T09:45:30;3.30;99.90
5802;DHT22;2927;49.366;8.530;2023-02-28T09:48:03;3.00;99.90
5802;DHT22;2927;49.366;8.530;2023-02-28T09:50:43;3.00;99.90
5802;DHT22;2927;49.366;8.530;2023-02-28T09:53:27;3.50;99.90
5802;DHT22;2927;49.366;8.530;2023-02-28T09:56:18;3.80;99.90
5802;DHT22;2927;49.366;8.530;2023-02-28T10:04:51;3.80;99.90
5802;DHT22;2927;49.366;8.530;2023-02-28T10:07:23;4.00;99.90
5802;DHT22;2927;49.366;8.530;2023-02-28T10:09:54;3.80;99.90
5802;DHT22;2927;49.366;8.530;2023-02-28T10:12:20;4.00;99.90
5802;DHT22;2927;49.366;8.530;2023-02-28T10:14:49;4.00;99.90
5802;DHT22;2927;49.366;8.530;2023-02-28T10:17:21;3.80;99.90
5802;DHT22;2927;49.366;8.530;2023-02-28T10:20:11;3.80;99.90
5802;DHT22;2927;49.366;8.530;2023-02-28T10:22:57;4.00;99.90
5802;DHT22;2927;49.366;8.530;2023-02-28T10:25:28;4.10;99.90
5802;DHT22;2927;49.366;8.530;2023-02-28T10:27:59;3.80;99.90
5802;DHT22;2927;49.366;8.530;2023-02-28T10:30:26;3.50;99.90
5802;DHT22;2927;49.366;8.530;2023-02-28T10:32:52;3.50;99.90
5802;DHT22;2927;49.366;8.530;2023-02-28T10:35:25;3.50;99.90
5802;DHT22;2927;49.366;8.530;2023-02-28T10:37:57;3.60;99.90
5802;DHT22;2927;49.366;8.530;2023-02-28T10:43:04;3.50;99.90
5802;DHT22;2927;49.366;8.530;2023-02-28T10:45:33;3.40;99.90
5802;DHT22;2927;49.366;8.530;2023-02-28T10:55:55;3.60;99.90
5802;DHT22;2927;49.366;8.530;2023-02-28T10:58:27;3.50;99.90
5802;DHT22;2927;49.366;8.530;2023-02-28T11:00:53;3.40;99.90
5802;DHT22;2927;49.366;8.530;2023-02-28T11:03:33;3.50;99.90
5802;DHT22;2927;49.366;8.530;2023-02-28T11:06:06;3.60;99.90
5802;DHT22;2927;49.366;8.530;2023-02-28T11:08:32;3.70;99.90
5802;DHT22;2927;49.366;8.530;2023-02-28T11:11:00;3.70;99.90
5802;DHT22;2927;49.366;8.530;2023-02-28T11:13:35;3.90;99.90
5802;DHT22;2927;49.366;8.530;2023-02-28T11:16:04;4.10;99.90
5802;DHT22;2927;49.366;8.530;2023-02-28T11:21:02;4.20;99.90
5802;DHT22;2927;49.366;8.530;2023-02-28T11:23:30;4.30;99.90
5802;DHT22;2927;49.366;8.530;2023-02-28T11:26:00;4.40;99.90
5802;DHT22;2927;49.366;8.530;2023-02-28T11:28:34;4.40;99.90
5802;DHT22;2927;49.366;8.530;2023-02-28T11:36:27;4.60;99.90
5802;DHT22;2927;49.366;8.530;2023-02-28T11:38:54;4.30;99.90
5802;DHT22;2927;49.366;8.530;2023-02-28T11:41:53;4.40;99.90
5802;DHT22;2927;49.366;8.530;2023-02-28T11:44:40;4.60;99.90
5802;DHT22;2927;49.366;8.530;2023-02-28T11:47:26;4.80;99.90
5802;DHT22;2927;49.366;8.530;2023-02-28T11:52:54;5.50;99.90
5802;DHT22;2927;49.366;8.530;2023-02-28T11:58:14;5.20;99.90
5802;DHT22;2927;49.366;8.530;2023-02-28T12:01:09;5.00;99.90
5802;DHT22;2927;49.366;8.530;2023-02-28T12:06:18;4.80;99.90
5802;DHT22;2927;49.366;8.530;2023-02-28T12:11:52;5.10;99.90
5802;DHT22;2927;49.366;8.530;2023-02-28T12:14:57;5.30;99.90
5802;DHT22;2927;49.366;8.530;2023-02-28T12:20:42;5.60;99.90
5802;DHT22;2927;49.366;8.530;2023-02-28T12:28:51;5.60;99.90
5802;DHT22;2927;49.366;8.530;2023-02-28T12:31:25;5.50;99.90
5802;DHT22;2927;49.366;8.530;2023-02-28T12:33:56;5.50;99.90
5802;DHT22;2927;49.366;8.530;2023-02-28T12:36:24;5.50;99.90
5802;DHT22;2927;49.366;8.530;2023-02-28T12:39:12;5.60;99.90
5802;DHT22;2927;49.366;8.530;2023-02-28T12:42:05;5.70;99.90
5802;DHT22;2927;49.366;8.530;2023-02-28T12:44:40;5.70;99.90
5802;DHT22;2927;49.366;8.530;2023-02-28T12:47:14;5.60;99.90
5802;DHT22;2927;49.366;8.530;2023-02-28T12:49:52;5.50;99.90
5802;DHT22;2927;49.366;8.530;2023-02-28T12:55:11;5.80;99.90
5802;DHT22;2927;49.366;8.530;2023-02-28T12:57:50;5.50;99.90
5802;DHT22;2927;49.366;8.530;2023-02-28T13:00:22;5.40;99.90
5802;DHT22;2927;49.366;8.530;2023-02-28T13:06:12;5.40;99.90
5802;DHT22;2927;49.366;8.530;2023-02-28T13:09:02;5.60;99.90
5802;DHT22;2927;49.366;8.530;2023-02-28T13:11:47;5.90;99.90
5802;DHT22;2927;49.366;8.530;2023-02-28T13:14:29;5.90;99.90
5802;DHT22;2927;49.366;8.530;2023-02-28T13:16:58;5.80;99.90
5802;DHT22;2927;49.366;8.530;2023-02-28T13:19:30;5.60;99.90
5802;DHT22;2927;49.366;8.530;2023-02-28T13:21:58;5.60;99.90
5802;DHT22;2927;49.366;8.530;2023-02-28T13:29:42;5.80;99.90
5802;DHT22;2927;49.366;8.530;2023-02-28T13:35:34;5.70;99.90
5802;DHT22;2927;49.366;8.530;2023-02-28T13:39:54;5.60;99.90
5802;DHT22;2927;49.366;8.530;2023-02-28T13:42:46;5.60;99.90
5802;DHT22;2927;49.366;8.530;2023-02-28T13:47:49;5.70;99.90
5802;DHT22;2927;49.366;8.530;2023-02-28T13:55:24;5.90;99.90
5802;DHT22;2927;49.366;8.530;2023-02-28T14:00:56;6.00;99.90
5802;DHT22;2927;49.366;8.530;2023-02-28T14:08:58;6.20;99.90
5802;DHT22;2927;49.366;8.530;2023-02-28T14:11:32;5.90;99.90
5802;DHT22;2927;49.366;8.530;2023-02-28T14:13:59;6.00;99.90
5802;DHT22;2927;49.366;8.530;2023-02-28T14:16:27;6.10;99.90
5802;DHT22;2927;49.366;8.530;2023-02-28T14:19:24;6.30;99.90
5802;DHT22;2927;49.366;8.530;2023-02-28T14:25:40;6.30;99.90
5802;DHT22;2927;49.366;8.530;2023-02-28T14:28:26;6.20;99.90
5802;DHT22;2927;49.366;8.530;2023-02-28T14:30:52;6.00;99.90
5802;DHT22;2927;49.366;8.530;2023-02-28T14:36:00;6.00;99.90
5802;DHT22;2927;49.366;8.530;2023-02-28T14:38:30;6.00;99.90
5802;DHT22;2927;49.366;8.530;2023-02-28T14:40:58;6.10;99.90
5802;DHT22;2927;49.366;8.530;2023-02-28T14:43:27;6.00;99.90
5802;DHT22;2927;49.366;8.530;2023-02-28T14:45:58;6.10;99.90
5802;DHT22;2927;49.366;8.530;2023-02-28T14:48:25;6.20;99.90
5802;DHT22;2927;49.366;8.530;2023-02-28T14:50:54;5.80;99.90
5802;DHT22;2927;49.366;8.530;2023-02-28T14:53:22;5.80;99.90
5802;DHT22;2927;49.366;8.530;2023-02-28T14:55:49;6.00;99.90
5802;DHT22;2927;49.366;8.530;2023-02-28T14:58:33;5.70;99.90
5802;DHT22;2927;49.366;8.530;2023-02-28T15:01:01;5.90;99.90
5802;DHT22;2927;49.366;8.530;2023-02-28T15:03:35;5.90;99.90
5802;DHT22;2927;49.366;8.530;2023-02-28T15:06:19;5.90;99.90
5802;DHT22;2927;49.366;8.530;2023-02-28T15:08:46;6.00;99.90
5802;DHT22;2927;49.366;8.530;2023-02-28T15:11:16;5.90;99.90
5802;DHT22;2927;49.366;8.530;2023-02-28T15:13:54;5.50;99.90
5802;DHT22;2927;49.366;8.530;2023-02-28T15:16:36;5.50;99.90
5802;DHT22;2927;49.366;8.530;2023-02-28T15:21:44;5.50;99.90
5802;DHT22;2927;49.366;8.530;2023-02-28T15:24:27;5.50;99.90
5802;DHT22;2927;49.366;8.530;2023-02-28T15:26:58;5.50;99.90
5802;DHT22;2927;49.366;8.530;2023-02-28T15:29:27;5.50;99.90
5802;DHT22;2927;49.366;8.530;2023-02-28T15:32:01;5.50;99.90
5802;DHT22;2927;49.366;8.530;2023-02-28T15:37:24;5.50;99.90
5802;DHT22;2927;49.366;8.530;2023-02-28T15:39:51;5.40;99.90
5802;DHT22;2927;49.366;8.530;2023-02-28T15:42:22;5.30;99.90
5802;DHT22;2927;49.366;8.530;2023-02-28T15:44:48;5.40;99.90
5802;DHT22;2927;49.366;8.530;2023-02-28T15:47:22;5.60;99.90
5802;DHT22;2927;49.366;8.530;2023-02-28T15:52:26;6.00;99.90
5802;DHT22;2927;49.366;8.530;2023-02-28T15:54:53;6.00;99.90
5802;DHT22;2927;49.366;8.530;2023-02-28T15:57:25;6.10;99.90
5802;DHT22;2927;49.366;8.530;2023-02-28T16:00:00;6.20;99.90
5802;DHT22;2927;49.366;8.530;2023-02-28T16:02:32;5.90;99.90
5802;DHT22;2927;49.366;8.530;2023-02-28T16:07:31;6.10;99.90
5802;DHT22;2927;49.366;8.530;2023-02-28T16:09:56;6.20;99.90
5802;DHT22;2927;49.366;8.530;2023-02-28T16:12:26;6.20;99.90
5802;DHT22;2927;49.366;8.530;2023-02-28T16:14:53;6.10;99.90
5802;DHT22;2927;49.366;8.530;2023-02-28T16:17:25;6.20;99.90
5802;DHT22;2927;49.366;8.530;2023-02-28T16:19:52;5.90;99.90
5802;DHT22;2927;49.366;8.530;2023-02-28T16:22:17;5.60;99.90
5802;DHT22;2927;49.366;8.530;2023-02-28T16:24:43;5.40;99.90
5802;DHT22;2927;49.366;8.530;2023-02-28T16:27:33;5.20;99.90
5802;DHT22;2927;49.366;8.530;2023-02-28T16:30:00;5.30;99.90
5802;DHT22;2927;49.366;8.530;2023-02-28T16:32:26;5.00;99.90
5802;DHT22;2927;49.366;8.530;2023-02-28T16:34:52;5.00;99.90
5802;DHT22;2927;49.366;8.530;2023-02-28T16:37:18;5.00;99.90
5802;DHT22;2927;49.366;8.530;2023-02-28T16:39:44;4.90;99.90
5802;DHT22;2927;49.366;8.530;2023-02-28T16:42:23;4.60;99.90
5802;DHT22;2927;49.366;8.530;2023-02-28T16:44:50;4.40;99.90
5802;DHT22;2927;49.366;8.530;2023-02-28T16:47:16;4.40;99.90
5802;DHT22;2927;49.366;8.530;2023-02-28T16:49:44;4.40;99.90
5802;DHT22;2927;49.366;8.530;2023-02-28T16:52:10;4.30;99.90
5802;DHT22;2927;49.366;8.530;2023-02-28T16:54:37;4.30;99.90
5802;DHT22;2927;49.366;8.530;2023-02-28T16:57:04;4.30;99.90
5802;DHT22;2927;49.366;8.530;2023-02-28T16:59:29;4.20;99.90
5802;DHT22;2927;49.366;8.530;2023-02-28T17:01:56;4.20;99.90
5802;DHT22;2927;49.366;8.530;2023-02-28T17:04:26;4.10;99.90
5802;DHT22;2927;49.366;8.530;2023-02-28T17:06:51;4.10;99.90
5802;DHT22;2927;49.366;8.530;2023-02-28T17:09:20;4.00;99.90
5802;DHT22;2927;49.366;8.530;2023-02-28T17:11:47;3.90;99.90
5802;DHT22;2927;49.366;8.530;2023-02-28T17:14:13;4.00;99.90
5802;DHT22;2927;49.366;8.530;2023-02-28T17:16:39;3.90;99.90
5802;DHT22;2927;49.366;8.530;2023-02-28T17:19:07;3.90;99.90
5802;DHT22;2927;49.366;8.530;2023-02-28T17:21:36;3.80;99.90
5802;DHT22;2927;49.366;8.530;2023-02-28T17:24:02;3.80;99.90
5802;DHT22;2927;49.366;8.530;2023-02-28T17:26:28;3.80;99.90
5802;DHT22;2927;49.366;8.530;2023-02-28T17:28:55;3.70;99.90
5802;DHT22;2927;49.366;8.530;2023-02-28T17:31:23;3.70;99.90
5802;DHT22;2927;49.366;8.530;2023-02-28T17:33:49;3.60;99.90
5802;DHT22;2927;49.366;8.530;2023-02-28T17:36:19;3.60;99.90
5802;DHT22;2927;49.366;8.530;2023-02-28T17:38:47;3.60;99.90
5802;DHT22;2927;49.366;8.530;2023-02-28T17:41:13;3.60;99.90
5802;DHT22;2927;49.366;8.530;2023-02-28T17:43:38;3.50;99.90
5802;DHT22;2927;49.366;8.530;2023-02-28T17:46:05;3.50;99.90
5802;DHT22;2927;49.366;8.530;2023-02-28T17:48:32;3.50;99.90
5802;DHT22;2927;49.366;8.530;2023-02-28T17:50:58;3.50;99.90
5802;DHT22;2927;49.366;8.530;2023-02-28T17:53:23;3.50;99.90
5802;DHT22;2927;49.366;8.530;2023-02-28T17:55:50;3.40;99.90
5802;DHT22;2927;49.366;8.530;2023-02-28T17:58:16;3.40;99.90
5802;DHT22;2927;49.366;8.530;2023-02-28T18:00:44;3.40;99.90
5802;DHT22;2927;49.366;8.530;2023-02-28T18:03:09;3.30;99.90
5802;DHT22;2927;49.366;8.530;2023-02-28T18:05:36;3.30;99.90
5802;DHT22;2927;49.366;8.530;2023-02-28T18:08:02;3.30;99.90
5802;DHT22;2927;49.366;8.530;2023-02-28T18:10:28;3.20;99.90
5802;DHT22;2927;49.366;8.530;2023-02-28T18:12:53;3.20;99.90
5802;DHT22;2927;49.366;8.530;2023-02-28T18:15:20;3.20;99.90
5802;DHT22;2927;49.366;8.530;2023-02-28T18:17:47;3.10;99.90
5802;DHT22;2927;49.366;8.530;2023-02-28T18:20:13;3.00;99.90
5802;DHT22;2927;49.366;8.530;2023-02-28T18:22:40;3.00;99.90
5802;DHT22;2927;49.366;8.530;2023-02-28T18:25:08;3.00;99.90
5802;DHT22;2927;49.366;8.530;2023-02-28T18:27:37;2.90;99.90
5802;DHT22;2927;49.366;8.530;2023-02-28T18:30:04;2.90;99.90
5802;DHT22;2927;49.366;8.530;2023-02-28T18:32:30;2.90;1.00
5802;DHT22;2927;49.366;8.530;2023-02-28T18:34:55;2.90;1.00